Time;durP1;ratioP1;P1;durP2;ratioP2;P2;SDS_P1;SDS_P2;PMS_P1;PMS_P2;Temp;Humidity;BMP_temperature;BMP_pressure;BME280_temperature;BME280_humidity;BME280_pressure;Samples;Min_cycle;Max_cycle;Signal;HPM_P1;HPM_P2
2022/01/07 00:01:09;;;;;;;24.67;8.23;;;-5.70;99.90;;;;;;4409778;28;659916;-74
2022/01/07 00:03:56;;;;;;;16.43;5.77;;;-5.60;99.90;;;;;;4390814;28;659572;-74
2022/01/07 00:06:45;;;;;;;16.25;6.65;;;-5.60;99.90;;;;;;4404109;28;660571;-75
2022/01/07 00:09:33;;;;;;;23.10;7.53;;;-5.60;99.90;;;;;;4384553;28;660840;-74
2022/01/07 00:12:22;;;;;;;32.15;8.48;;;-5.60;99.90;;;;;;4393979;28;660558;-75
2022/01/07 00:15:10;;;;;;;23.40;6.80;;;-5.60;99.90;;;;;;4405991;28;660240;-75
2022/01/07 00:17:58;;;;;;;26.30;8.73;;;-5.60;99.90;;;;;;4385265;28;660115;-74
2022/01/07 00:20:46;;;;;;;31.02;9.20;;;-5.50;99.90;;;;;;4391256;28;659762;-74
2022/01/07 00:23:35;;;;;;;25.53;8.47;;;-5.50;99.90;;;;;;4402448;28;659177;-76
2022/01/07 00:26:23;;;;;;;34.03;10.77;;;-5.50;99.90;;;;;;4381978;28;660604;-77
2022/01/07 00:29:10;;;;;;;24.37;8.00;;;-5.60;99.90;;;;;;4387758;28;660477;-74
2022/01/07 00:31:58;;;;;;;19.97;7.77;;;-5.60;99.90;;;;;;4405978;28;660300;-74
2022/01/07 00:34:45;;;;;;;21.80;8.27;;;-5.70;99.90;;;;;;4390405;28;660164;-76
2022/01/07 00:37:33;;;;;;;32.00;10.20;;;-5.70;99.90;;;;;;4402057;28;660087;-77
2022/01/07 00:40:23;;;;;;;34.27;10.47;;;-5.70;99.90;;;;;;4371566;28;660827;-76
2022/01/07 00:43:11;;;;;;;32.63;9.70;;;-5.70;99.90;;;;;;4369920;28;660582;-74
2022/01/07 00:45:58;;;;;;;24.23;8.87;;;-5.70;99.90;;;;;;4388996;28;660669;-76
2022/01/07 00:48:46;;;;;;;26.53;9.47;;;-5.70;99.90;;;;;;4371794;28;659674;-76
2022/01/07 00:51:33;;;;;;;33.77;9.80;;;-5.70;99.90;;;;;;4388056;28;661455;-76
2022/01/07 00:54:21;;;;;;;29.53;10.23;;;-5.80;99.90;;;;;;4371866;28;659504;-76
2022/01/07 00:57:10;;;;;;;33.70;9.40;;;-5.80;99.90;;;;;;4388285;28;661399;-76
2022/01/07 00:59:58;;;;;;;33.27;10.13;;;-5.80;99.90;;;;;;4371888;28;660589;-76
2022/01/07 01:02:46;;;;;;;31.93;9.97;;;-5.80;99.90;;;;;;4381251;28;660728;-76
2022/01/07 01:05:33;;;;;;;24.63;9.73;;;-5.80;99.90;;;;;;4387834;28;659611;-77
2022/01/07 01:08:21;;;;;;;30.70;10.10;;;-5.80;99.90;;;;;;4371765;28;659798;-76
2022/01/07 01:11:08;;;;;;;30.83;10.77;;;-5.80;99.90;;;;;;4391830;28;662163;-77
2022/01/07 01:13:57;;;;;;;35.13;11.03;;;-5.80;99.90;;;;;;4370539;28;661209;-77
2022/01/07 01:16:47;;;;;;;32.87;9.90;;;-5.80;99.90;;;;;;4388431;28;660597;-76
2022/01/07 01:19:34;;;;;;;29.93;9.97;;;-5.90;99.90;;;;;;4385863;28;660146;-77
2022/01/07 01:22:22;;;;;;;30.77;10.43;;;-5.90;99.90;;;;;;4371762;28;659800;-76
2022/01/07 01:25:10;;;;;;;37.67;11.20;;;-6.00;99.90;;;;;;4392562;28;660592;-76
2022/01/07 01:27:57;;;;;;;28.30;10.30;;;-6.10;99.90;;;;;;4366254;28;662053;-77
2022/01/07 01:30:47;;;;;;;33.50;10.23;;;-6.10;99.90;;;;;;4388039;28;661119;-76
2022/01/07 01:33:35;;;;;;;29.73;10.38;;;-6.10;99.90;;;;;;4389129;28;660606;-77
2022/01/07 01:36:22;;;;;;;29.47;10.03;;;-6.20;99.90;;;;;;4366323;28;662707;-76
2022/01/07 01:39:12;;;;;;;29.53;10.27;;;-6.20;99.90;;;;;;4394541;28;660681;-76
2022/01/07 01:41:59;;;;;;;33.87;9.90;;;-6.20;99.90;;;;;;4375883;28;660760;-77
2022/01/07 01:44:47;;;;;;;29.27;9.93;;;-6.20;99.90;;;;;;4367516;28;659326;-77
2022/01/07 01:47:36;;;;;;;29.13;8.87;;;-6.20;99.90;;;;;;4391549;28;660196;-77
2022/01/07 01:50:23;;;;;;;30.27;9.47;;;-6.20;99.90;;;;;;4367267;28;660232;-77
2022/01/07 01:53:11;;;;;;;35.20;9.90;;;-6.30;99.90;;;;;;4372022;28;659838;-76
2022/01/07 01:55:58;;;;;;;30.57;9.37;;;-6.30;99.90;;;;;;4393733;28;661172;-76
2022/01/07 01:58:46;;;;;;;35.13;11.07;;;-6.30;99.90;;;;;;4371576;28;659250;-76
2022/01/07 02:01:34;;;;;;;26.33;9.50;;;-6.30;99.90;;;;;;4384860;28;661213;-77
2022/01/07 02:04:23;;;;;;;35.87;11.30;;;-6.40;99.90;;;;;;4374785;28;659892;-77
2022/01/07 02:07:11;;;;;;;30.47;10.60;;;-6.40;99.90;;;;;;4374124;28;660845;-77
2022/01/07 02:09:59;;;;;;;30.07;10.53;;;-6.40;99.90;;;;;;4393352;28;661011;-77
2022/01/07 02:12:47;;;;;;;37.77;12.50;;;-6.40;99.90;;;;;;4374414;28;660378;-76
2022/01/07 02:15:34;;;;;;;38.93;12.53;;;-6.40;99.90;;;;;;4391833;28;660543;-77
2022/01/07 02:18:22;;;;;;;48.03;12.60;;;-6.40;99.90;;;;;;4373484;28;660969;-77
2022/01/07 02:21:10;;;;;;;40.33;13.63;;;-6.40;99.90;;;;;;4395696;28;660421;-77
2022/01/07 02:23:58;;;;;;;47.00;13.87;;;-6.40;99.90;;;;;;4369735;28;661415;-76
2022/01/07 02:26:47;;;;;;;40.80;15.03;;;-6.40;99.90;;;;;;4370772;28;661200;-76
2022/01/07 02:29:35;;;;;;;36.80;12.67;;;-6.40;99.90;;;;;;4384573;28;661146;-76
2022/01/07 02:32:23;;;;;;;42.17;12.60;;;-6.50;99.90;;;;;;4368469;28;661004;-76
2022/01/07 02:35:11;;;;;;;37.45;13.43;;;-6.50;99.90;;;;;;4372428;28;660984;-77
2022/01/07 02:38:00;;;;;;;41.30;14.60;;;-6.50;99.90;;;;;;4392163;28;660779;-76
2022/01/07 02:40:48;;;;;;;40.87;14.53;;;-6.60;99.90;;;;;;4363812;28;661606;-77
2022/01/07 02:43:35;;;;;;;40.80;13.90;;;-6.60;99.90;;;;;;4369722;28;661221;-75
2022/01/07 02:46:23;;;;;;;39.37;12.83;;;-6.60;99.90;;;;;;4390975;28;661296;-77
2022/01/07 02:49:11;;;;;;;38.13;13.90;;;-6.70;99.90;;;;;;4371866;28;661143;-76
2022/01/07 02:51:58;;;;;;;43.27;14.10;;;-6.70;99.90;;;;;;4394306;28;662472;-77
2022/01/07 02:54:47;;;;;;;37.80;13.43;;;-6.60;99.90;;;;;;4369057;28;660921;-76
2022/01/07 02:57:35;;;;;;;41.90;13.53;;;-6.70;99.90;;;;;;4386377;28;661100;-77
2022/01/07 03:00:23;;;;;;;43.70;14.23;;;-6.70;99.90;;;;;;4368225;28;661988;-76
2022/01/07 03:03:11;;;;;;;46.40;14.50;;;-6.80;99.90;;;;;;4385444;28;660599;-76
2022/01/07 03:05:58;;;;;;;43.50;15.63;;;-6.80;99.90;;;;;;4391002;28;661363;-77
2022/01/07 03:08:47;;;;;;;42.85;15.30;;;-6.90;99.90;;;;;;4369068;28;661122;-76
2022/01/07 03:11:36;;;;;;;43.03;15.40;;;-6.90;99.90;;;;;;4389912;28;660915;-77
2022/01/07 03:14:25;;;;;;;45.33;15.20;;;-6.90;99.90;;;;;;4368037;28;661187;-77
2022/01/07 03:17:12;;;;;;;41.47;15.47;;;-6.90;99.90;;;;;;4367543;28;661955;-76
2022/01/07 03:20:00;;;;;;;43.23;13.33;;;-7.00;99.90;;;;;;4394362;28;659936;-77
2022/01/07 03:22:48;;;;;;;43.83;13.37;;;-7.00;99.90;;;;;;4365066;28;662116;-77
2022/01/07 03:25:35;;;;;;;43.27;13.80;;;-7.00;99.90;;;;;;4379915;28;661217;-77
2022/01/07 03:28:24;;;;;;;40.13;13.67;;;-7.00;99.90;;;;;;4390708;28;660865;-76
2022/01/07 03:31:12;;;;;;;35.07;12.90;;;-7.10;99.90;;;;;;4371417;28;661212;-77
2022/01/07 03:33:59;;;;;;;37.97;12.43;;;-7.10;99.90;;;;;;4392474;28;660337;-76
2022/01/07 03:36:47;;;;;;;36.53;13.83;;;-7.10;99.90;;;;;;4371144;28;661120;-77
2022/01/07 03:39:34;;;;;;;39.10;13.00;;;-7.20;99.90;;;;;;4387516;28;660946;-77
2022/01/07 03:42:22;;;;;;;40.13;13.53;;;-7.20;99.90;;;;;;4373693;28;661067;-76
2022/01/07 03:45:12;;;;;;;37.27;13.53;;;-7.30;99.90;;;;;;4391367;28;660635;-76
2022/01/07 03:47:59;;;;;;;38.50;13.00;;;-7.30;99.90;;;;;;4366831;28;660685;-77
2022/01/07 03:50:47;;;;;;;41.60;13.73;;;-7.30;99.90;;;;;;4370193;28;661128;-76
2022/01/07 03:53:34;;;;;;;182.30;18.07;;;-7.30;99.90;;;;;;4392096;28;661187;-76
2022/01/07 03:56:22;;;;;;;41.67;13.13;;;-7.30;99.90;;;;;;4372053;28;662244;-76
2022/01/07 03:59:09;;;;;;;41.30;14.03;;;-7.30;99.90;;;;;;4391199;28;660866;-77
2022/01/07 04:01:58;;;;;;;39.60;15.53;;;-7.30;99.90;;;;;;4372693;28;660599;-76
2022/01/07 04:04:46;;;;;;;86.97;24.30;;;-7.40;99.90;;;;;;4369994;28;660719;-75
2022/01/07 04:07:36;;;;;;;51.63;17.83;;;-7.40;99.90;;;;;;4388812;28;662003;-77
2022/01/07 04:10:24;;;;;;;45.57;14.60;;;-7.40;99.90;;;;;;4368927;28;660867;-77
2022/01/07 04:13:11;;;;;;;42.70;15.37;;;-7.40;99.90;;;;;;4370231;28;661558;-77
2022/01/07 04:15:59;;;;;;;45.90;16.10;;;-7.50;99.90;;;;;;4382459;28;660693;-77
2022/01/07 04:18:48;;;;;;;48.70;16.80;;;-7.50;99.90;;;;;;4368242;28;661533;-76
2022/01/07 04:21:36;;;;;;;49.37;15.83;;;-7.50;99.90;;;;;;4373782;28;660672;-75
2022/01/07 04:24:23;;;;;;;48.67;16.50;;;-7.50;99.90;;;;;;4392281;28;661345;-77
2022/01/07 04:27:11;;;;;;;45.13;15.53;;;-7.60;99.90;;;;;;4371452;28;660820;-77
2022/01/07 04:29:58;;;;;;;36.37;14.47;;;-7.60;99.90;;;;;;4394111;28;661115;-76
2022/01/07 04:32:46;;;;;;;44.63;14.83;;;-7.60;99.90;;;;;;4371162;28;660693;-76
2022/01/07 04:35:35;;;;;;;39.83;14.80;;;-7.50;99.90;;;;;;4385851;28;661348;-77
2022/01/07 04:38:23;;;;;;;42.33;14.57;;;-7.60;99.90;;;;;;4372345;28;661206;-76
2022/01/07 04:41:11;;;;;;;45.07;15.60;;;-7.60;99.90;;;;;;4362573;28;661132;-77
2022/01/07 04:43:58;;;;;;;42.00;14.60;;;-7.70;99.90;;;;;;4394181;28;660298;-77
2022/01/07 04:46:46;;;;;;;41.40;14.37;;;-7.70;99.90;;;;;;4372417;28;660736;-77
2022/01/07 04:49:33;;;;;;;44.30;14.03;;;-7.70;99.90;;;;;;4395321;28;661095;-77
2022/01/07 04:52:22;;;;;;;35.97;13.87;;;-7.70;99.90;;;;;;4371583;28;660803;-76
2022/01/07 04:55:11;;;;;;;43.90;13.97;;;-7.80;99.90;;;;;;4389767;28;660851;-77
2022/01/07 04:57:58;;;;;;;40.47;14.07;;;-7.70;99.90;;;;;;4368334;28;660849;-77
2022/01/07 05:00:46;;;;;;;45.42;14.85;;;-7.70;99.90;;;;;;4369938;28;660590;-75
2022/01/07 05:03:33;;;;;;;45.33;15.30;;;-7.70;99.90;;;;;;4385408;28;660419;-77
2022/01/07 05:06:43;;;;;;;36.03;13.50;;;-7.80;99.90;;;;;;4364696;28;661810;-74
2022/01/07 05:09:34;;;;;;;38.80;14.23;;;-7.80;99.90;;;;;;4349782;28;660806;-75
2022/01/07 05:12:21;;;;;;;41.57;14.73;;;-7.80;99.90;;;;;;4376571;28;660510;-75
2022/01/07 05:15:10;;;;;;;37.88;15.15;;;-7.80;99.90;;;;;;4389349;28;660713;-75
2022/01/07 05:17:57;;;;;;;50.97;16.70;;;-7.80;99.90;;;;;;4368537;28;661230;-75
2022/01/07 05:20:46;;;;;;;42.30;14.40;;;-7.90;99.90;;;;;;4396712;28;661218;-75
2022/01/07 05:23:34;;;;;;;44.10;16.00;;;-7.80;99.90;;;;;;4370188;28;661217;-75
2022/01/07 05:26:23;;;;;;;35.43;14.73;;;-7.90;99.90;;;;;;4371137;28;661490;-75
2022/01/07 05:29:10;;;;;;;36.13;12.80;;;-7.80;99.90;;;;;;4372541;28;660835;-75
2022/01/07 05:31:58;;;;;;;37.30;13.40;;;-7.80;99.90;;;;;;4390750;28;661772;-75
2022/01/07 05:34:46;;;;;;;34.38;12.50;;;-7.90;99.90;;;;;;4371180;28;660915;-77
2022/01/07 05:37:33;;;;;;;35.33;11.80;;;-7.90;99.90;;;;;;4391596;28;661035;-77
2022/01/07 05:40:21;;;;;;;28.77;10.23;;;-7.90;99.90;;;;;;4389533;28;660605;-76
2022/01/07 05:43:10;;;;;;;29.17;9.83;;;-7.90;99.90;;;;;;4410851;28;661681;-76
2022/01/07 05:45:58;;;;;;;32.13;10.27;;;-7.90;99.90;;;;;;4387377;28;660096;-77
2022/01/07 05:48:46;;;;;;;29.63;10.83;;;-7.90;99.90;;;;;;4400909;28;661406;-76
2022/01/07 05:51:33;;;;;;;27.00;9.73;;;-7.90;99.90;;;;;;4414637;28;661648;-76
2022/01/07 05:54:21;;;;;;;32.72;11.02;;;-7.90;99.90;;;;;;4391390;28;659700;-77
2022/01/07 05:57:08;;;;;;;43.33;13.80;;;-8.00;99.90;;;;;;4411765;28;661243;-77
2022/01/07 05:59:57;;;;;;;66.17;18.43;;;-8.00;99.90;;;;;;4392118;28;660964;-76
2022/01/07 06:02:45;;;;;;;87.57;23.53;;;-8.10;99.90;;;;;;4410473;28;660431;-77
2022/01/07 06:05:32;;;;;;;96.43;24.50;;;-8.10;99.90;;;;;;4387492;28;662407;-76
2022/01/07 06:08:20;;;;;;;77.10;21.97;;;-8.10;99.90;;;;;;4410072;28;660569;-77
2022/01/07 06:11:07;;;;;;;267.90;56.10;;;-8.10;99.90;;;;;;4387578;28;661674;-77
2022/01/07 06:13:55;;;;;;;229.20;49.13;;;-8.10;99.90;;;;;;4409037;28;661699;-76
2022/01/07 06:16:44;;;;;;;168.83;39.20;;;-8.10;99.90;;;;;;4406644;28;662324;-77
2022/01/07 06:19:32;;;;;;;121.37;29.77;;;-8.10;99.90;;;;;;4389288;28;662425;-76
2022/01/07 06:22:19;;;;;;;72.90;22.10;;;-8.10;99.90;;;;;;4412325;28;661734;-77
2022/01/07 06:25:07;;;;;;;54.23;14.93;;;-8.00;99.90;;;;;;4391275;28;660510;-77
2022/01/07 06:27:55;;;;;;;53.07;15.70;;;-8.00;99.90;;;;;;4414050;28;660875;-77
2022/01/07 06:30:42;;;;;;;41.83;12.27;;;-8.00;99.90;;;;;;4391114;28;661317;-77
2022/01/07 06:33:32;;;;;;;40.37;12.87;;;-8.00;99.90;;;;;;4409267;28;661330;-76
2022/01/07 06:36:20;;;;;;;45.73;13.97;;;-8.00;99.90;;;;;;4409679;28;660966;-77
2022/01/07 06:39:07;;;;;;;43.03;13.57;;;-8.00;99.90;;;;;;4385282;28;661426;-77
2022/01/07 06:41:55;;;;;;;43.43;12.87;;;-7.90;99.90;;;;;;4415438;28;660402;-76
2022/01/07 06:44:42;;;;;;;43.90;13.17;;;-7.90;99.90;;;;;;4394173;28;660849;-76
2022/01/07 06:47:30;;;;;;;40.77;13.53;;;-7.90;99.90;;;;;;4416917;28;660783;-77
2022/01/07 06:50:19;;;;;;;34.67;11.67;;;-7.90;99.90;;;;;;4379496;28;661890;-77
2022/01/07 06:53:07;;;;;;;37.07;10.87;;;-7.90;99.90;;;;;;4390641;28;661819;-77
2022/01/07 06:55:56;;;;;;;40.67;12.80;;;-7.80;99.90;;;;;;4407894;28;661366;-76
2022/01/07 06:58:43;;;;;;;38.53;13.60;;;-7.80;99.90;;;;;;4413321;28;661043;-76
2022/01/07 07:01:31;;;;;;;49.23;14.77;;;-7.80;99.90;;;;;;4390194;28;660624;-76
2022/01/07 07:04:18;;;;;;;102.90;27.63;;;-7.90;99.90;;;;;;4416729;28;661445;-76
2022/01/07 07:07:07;;;;;;;164.70;40.17;;;-7.80;99.90;;;;;;4398664;28;661601;-77
2022/01/07 07:09:56;;;;;;;164.60;42.67;;;-7.80;99.90;;;;;;4404497;28;661893;-76
2022/01/07 07:12:44;;;;;;;213.57;57.83;;;-7.80;99.90;;;;;;4416037;28;661793;-76
2022/01/07 07:15:32;;;;;;;194.48;58.45;;;-7.70;99.90;;;;;;4393259;28;662013;-77
2022/01/07 07:18:19;;;;;;;147.67;42.53;;;-7.70;99.90;;;;;;4417442;28;661847;-76
2022/01/07 07:21:07;;;;;;;139.85;45.40;;;-7.60;99.90;;;;;;4395667;28;662259;-76
2022/01/07 07:23:56;;;;;;;114.70;37.20;;;-7.50;99.90;;;;;;4412688;28;662098;-76
2022/01/07 07:26:43;;;;;;;67.10;22.97;;;-7.50;99.90;;;;;;4393732;28;661950;-76
2022/01/07 07:29:31;;;;;;;60.97;19.67;;;-7.40;99.90;;;;;;4402431;28;660864;-76
2022/01/07 07:32:24;;;;;;;43.07;14.77;;;-7.20;99.90;;;;;;4422061;28;661791;-76
2022/01/07 07:38:19;;;;;;;38.60;15.10;;;-7.00;99.90;;;;;;4339995;28;661079;-76
2022/01/07 07:41:08;;;;;;;42.27;15.47;;;-6.80;99.90;;;;;;4344307;28;660729;-76
2022/01/07 07:43:57;;;;;;;54.70;17.27;;;-6.70;99.90;;;;;;4346316;28;661151;-76
2022/01/07 07:46:44;;;;;;;59.37;18.57;;;-6.60;99.90;;;;;;4369102;28;660927;-76
2022/01/07 07:49:32;;;;;;;58.17;20.33;;;-6.50;99.90;;;;;;4348516;28;660808;-76
2022/01/07 07:52:19;;;;;;;78.60;25.87;;;-6.40;99.90;;;;;;4368368;28;660476;-76
2022/01/07 07:55:08;;;;;;;70.60;26.70;;;-6.30;99.90;;;;;;4344085;28;660809;-76
2022/01/07 07:57:57;;;;;;;83.73;28.83;;;-6.20;99.90;;;;;;4354331;28;660548;-76
2022/01/07 08:00:45;;;;;;;71.13;25.93;;;-6.00;99.90;;;;;;4372053;28;661147;-77
2022/01/07 08:03:32;;;;;;;62.63;20.70;;;-5.70;99.90;;;;;;4344992;28;661750;-77
2022/01/07 08:06:20;;;;;;;38.03;13.90;;;-5.40;99.90;;;;;;4364019;28;661619;-76
2022/01/07 08:09:07;;;;;;;58.70;20.97;;;-5.20;99.90;;;;;;4340737;28;661984;-77
2022/01/07 08:12:04;;;;;;;30.30;12.37;;;-5.00;99.90;;;;;;4364149;28;660891;-76
2022/01/07 08:17:58;;;;;;;34.43;12.67;;;-4.70;99.90;;;;;;4324849;28;660743;-76
2022/01/07 08:20:46;;;;;;;32.03;12.07;;;-4.50;99.90;;;;;;4406252;28;660224;-76
2022/01/07 08:23:33;;;;;;;32.90;13.57;;;-4.30;99.90;;;;;;4416819;28;661899;-76
2022/01/07 08:26:21;;;;;;;38.03;13.87;;;-4.10;99.90;;;;;;4387334;28;660875;-76
2022/01/07 08:29:11;;;;;;;46.03;18.17;;;-4.00;99.90;;;;;;4411534;28;661244;-76
2022/01/07 08:35:06;;;;;;;63.67;22.43;;;-2.90;99.90;;;;;;4410301;28;661140;-74
2022/01/07 08:37:54;;;;;;;62.07;22.37;;;-1.90;99.90;;;;;;4412778;28;660921;-74
2022/01/07 08:40:42;;;;;;;74.32;27.10;;;-1.00;99.90;;;;;;4381211;28;661304;-76
2022/01/07 08:43:29;;;;;;;76.10;26.23;;;-0.40;99.90;;;;;;4403695;28;661005;-76
2022/01/07 08:46:17;;;;;;;71.43;27.50;;;0.10;99.90;;;;;;4383115;28;660804;-76
2022/01/07 08:49:06;;;;;;;73.40;24.03;;;0.60;99.90;;;;;;4400904;28;659532;-76
2022/01/07 08:51:54;;;;;;;56.77;24.13;;;0.90;99.90;;;;;;4382576;28;660153;-76
2022/01/07 08:54:41;;;;;;;62.07;23.57;;;1.60;99.90;;;;;;4380901;28;660581;-76
2022/01/07 08:57:29;;;;;;;49.20;18.97;;;2.10;99.90;;;;;;4408391;28;660307;-76
2022/01/07 09:00:17;;;;;;;40.43;16.77;;;2.90;99.90;;;;;;4384672;28;659607;-76
2022/01/07 09:03:05;;;;;;;43.93;18.37;;;3.90;95.90;;;;;;4401450;28;659562;-76
2022/01/07 09:05:54;;;;;;;48.17;20.90;;;4.60;82.90;;;;;;4371416;28;660931;-75
2022/01/07 09:08:41;;;;;;;44.38;19.92;;;5.50;77.50;;;;;;4367815;28;660133;-76
2022/01/07 09:11:29;;;;;;;45.10;18.23;;;6.10;70.80;;;;;;4402091;28;659686;-76
2022/01/07 09:14:16;;;;;;;40.20;16.97;;;6.70;64.90;;;;;;4377032;28;660261;-76
2022/01/07 09:17:05;;;;;;;40.53;16.77;;;7.40;61.50;;;;;;4396612;28;659957;-76
2022/01/07 09:19:53;;;;;;;36.70;16.37;;;7.60;57.90;;;;;;4381085;28;660581;-76
2022/01/07 09:22:42;;;;;;;26.83;11.37;;;8.20;55.70;;;;;;4366072;28;659867;-76
2022/01/07 09:25:31;;;;;;;17.47;8.57;;;8.50;50.70;;;;;;4391299;28;660144;-75
2022/01/07 09:28:19;;;;;;;19.23;8.20;;;8.20;46.70;;;;;;4404273;28;659348;-76
2022/01/07 09:31:06;;;;;;;25.93;10.37;;;8.30;47.60;;;;;;4388553;28;658646;-76
2022/01/07 09:33:54;;;;;;;19.60;7.97;;;8.00;46.30;;;;;;4398561;28;660517;-76
2022/01/07 09:36:41;;;;;;;21.17;9.00;;;8.00;44.90;;;;;;4381285;28;660018;-76
2022/01/07 09:39:31;;;;;;;23.33;10.20;;;7.80;45.50;;;;;;4405582;28;659033;-76
2022/01/07 09:42:19;;;;;;;25.77;11.48;;;7.80;45.20;;;;;;4386635;28;660049;-76
2022/01/07 09:45:07;;;;;;;20.67;9.93;;;8.20;47.80;;;;;;4392992;28;659615;-76
2022/01/07 09:47:55;;;;;;;24.37;10.47;;;8.20;47.40;;;;;;4409046;28;658394;-76
2022/01/07 09:50:43;;;;;;;29.73;13.07;;;8.70;46.80;;;;;;4394830;28;660811;-77
2022/01/07 09:53:31;;;;;;;26.10;12.20;;;9.20;45.80;;;;;;4388702;28;659819;-76
2022/01/07 09:56:20;;;;;;;21.50;9.93;;;9.80;44.50;;;;;;4419920;28;660414;-76
2022/01/07 09:59:07;;;;;;;20.50;8.73;;;9.90;40.30;;;;;;4398090;28;660013;-75
2022/01/07 10:01:56;;;;;;;28.30;12.80;;;10.50;41.10;;;;;;4419610;28;658955;-76
2022/01/07 10:04:44;;;;;;;19.13;9.57;;;10.80;41.50;;;;;;4396274;28;662179;-76
2022/01/07 10:07:32;;;;;;;21.27;9.87;;;11.30;40.10;;;;;;4397423;28;660016;-77
2022/01/07 10:10:20;;;;;;;17.60;8.17;;;12.00;40.00;;;;;;4412608;28;659698;-77
2022/01/07 10:13:09;;;;;;;20.33;9.53;;;12.20;36.40;;;;;;4392930;28;660522;-78
2022/01/07 10:15:57;;;;;;;16.97;7.17;;;12.40;37.60;;;;;;4380844;28;660143;-77
2022/01/07 10:18:45;;;;;;;16.40;8.35;;;12.90;35.50;;;;;;4403709;28;659952;-78
2022/01/07 10:21:33;;;;;;;18.63;7.90;;;12.10;30.30;;;;;;4388237;28;660665;-77
2022/01/07 10:24:21;;;;;;;16.47;7.73;;;12.10;31.40;;;;;;4394180;28;660136;-76
2022/01/07 10:27:12;;;;;;;16.30;7.90;;;12.10;31.20;;;;;;4406740;28;660440;-77
2022/01/07 10:30:01;;;;;;;15.67;7.13;;;11.50;33.80;;;;;;4382661;28;659912;-77
2022/01/07 10:32:49;;;;;;;16.07;7.37;;;12.00;33.10;;;;;;4385610;28;660493;-76
2022/01/07 10:35:36;;;;;;;19.80;8.00;;;12.20;32.20;;;;;;4386498;28;659370;-76
2022/01/07 10:38:25;;;;;;;29.10;7.43;;;12.20;30.10;;;;;;4409414;28;660608;-78
2022/01/07 10:41:13;;;;;;;14.43;7.40;;;10.70;28.50;;;;;;4388268;28;659677;-77
2022/01/07 10:44:02;;;;;;;14.63;6.23;;;9.80;29.30;;;;;;4385585;28;660077;-75
2022/01/07 10:46:53;;;;;;;11.10;5.23;;;9.10;29.50;;;;;;4414830;28;658186;-76
2022/01/07 10:49:41;;;;;;;13.00;5.50;;;8.90;29.20;;;;;;4368734;28;660370;-77
2022/01/07 10:52:28;;;;;;;12.57;5.93;;;8.20;31.70;;;;;;4411282;28;659268;-76
2022/01/07 10:55:18;;;;;;;12.23;5.57;;;7.90;32.30;;;;;;4389873;28;658834;-77
2022/01/07 10:58:05;;;;;;;15.93;5.50;;;8.60;32.40;;;;;;4391823;28;659184;-76
2022/01/07 11:00:53;;;;;;;12.60;5.43;;;8.20;30.40;;;;;;4410719;28;659875;-77
2022/01/07 11:03:42;;;;;;;14.23;5.30;;;8.30;31.80;;;;;;4389940;28;658941;-77
2022/01/07 11:06:30;;;;;;;12.93;5.90;;;8.10;31.10;;;;;;4411847;28;658618;-77
2022/01/07 11:09:18;;;;;;;14.30;6.57;;;7.80;30.00;;;;;;4389829;28;658860;-75
2022/01/07 11:12:07;;;;;;;16.00;6.23;;;8.40;31.40;;;;;;4390748;28;658607;-75
2022/01/07 11:14:55;;;;;;;15.63;6.13;;;8.90;31.30;;;;;;4414774;28;658792;-76
2022/01/07 11:17:43;;;;;;;16.47;6.47;;;8.70;31.70;;;;;;4380149;28;658953;-75
2022/01/07 11:20:32;;;;;;;17.63;7.23;;;8.70;30.20;;;;;;4387436;28;658639;-76
2022/01/07 11:23:20;;;;;;;18.60;7.90;;;8.80;33.20;;;;;;4410277;28;659148;-76
2022/01/07 11:26:08;;;;;;;14.30;6.03;;;9.30;32.00;;;;;;4387892;28;659061;-75
2022/01/07 11:28:58;;;;;;;15.33;6.23;;;9.60;30.10;;;;;;4388779;28;658698;-75
2022/01/07 11:31:46;;;;;;;17.77;6.27;;;9.40;30.40;;;;;;4390704;28;660061;-76
2022/01/07 11:34:34;;;;;;;15.23;6.43;;;9.00;30.80;;;;;;4405278;28;660420;-74
2022/01/07 11:37:35;;;;;;;14.03;6.40;;;8.80;30.90;;;;;;4390967;28;659461;-75
2022/01/07 11:40:44;;;;;;;15.27;6.13;;;8.70;32.40;;;;;;4360870;28;659756;-76
2022/01/07 11:43:34;;;;;;;10.13;4.93;;;9.50;31.80;;;;;;4368908;28;658673;-76
2022/01/07 11:46:29;;;;;;;13.67;5.33;;;9.40;29.40;;;;;;4389546;28;658988;-76
2022/01/07 11:49:34;;;;;;;14.77;6.30;;;8.60;30.10;;;;;;4392015;28;658653;-76
2022/01/07 11:52:32;;;;;;;14.47;6.17;;;8.80;32.10;;;;;;4387881;28;659424;-75
2022/01/07 11:55:26;;;;;;;12.60;5.87;;;9.50;30.10;;;;;;4391397;28;659636;-75
2022/01/07 11:58:14;;;;;;;14.83;6.20;;;9.90;30.10;;;;;;4386417;28;658776;-74
2022/01/07 12:01:03;;;;;;;15.40;6.70;;;10.10;29.90;;;;;;4387082;28;658520;-74
2022/01/07 12:03:53;;;;;;;14.80;5.37;;;9.70;30.70;;;;;;4389394;28;659287;-76
2022/01/07 12:06:50;;;;;;;16.13;6.40;;;9.00;29.80;;;;;;4398778;28;658417;-75
2022/01/07 12:09:41;;;;;;;14.83;6.97;;;9.90;31.70;;;;;;4389625;28;658441;-75
2022/01/07 12:12:33;;;;;;;15.17;6.27;;;10.20;30.60;;;;;;4387142;28;659522;-76
2022/01/07 12:15:21;;;;;;;16.40;6.20;;;10.30;28.30;;;;;;4366230;28;659583;-77
2022/01/07 12:18:09;;;;;;;18.23;6.30;;;11.00;29.90;;;;;;4411269;28;660893;-75
2022/01/07 12:20:57;;;;;;;16.03;6.40;;;10.60;28.00;;;;;;4384315;28;659949;-75
2022/01/07 12:23:44;;;;;;;15.77;6.70;;;10.80;29.00;;;;;;4405521;28;659946;-76
2022/01/07 12:26:32;;;;;;;16.83;6.53;;;10.20;28.20;;;;;;4389416;28;659677;-75
2022/01/07 12:29:21;;;;;;;18.90;7.00;;;9.60;29.00;;;;;;4407761;28;659786;-74
2022/01/07 12:32:11;;;;;;;19.43;7.73;;;8.60;30.70;;;;;;4382611;28;658529;-73
2022/01/07 12:34:58;;;;;;;16.83;7.13;;;9.50;32.50;;;;;;4388562;28;659273;-75
2022/01/07 12:37:46;;;;;;;17.93;6.83;;;10.30;29.70;;;;;;4386968;28;658857;-75
2022/01/07 12:40:33;;;;;;;14.47;5.43;;;9.70;28.60;;;;;;4410199;28;660887;-77
2022/01/07 12:43:22;;;;;;;18.67;6.20;;;7.60;29.40;;;;;;4390508;28;658381;-74
2022/01/07 12:46:11;;;;;;;15.77;6.00;;;6.40;31.70;;;;;;4406818;28;658327;-75
2022/01/07 12:48:59;;;;;;;16.50;6.97;;;5.30;33.30;;;;;;4389589;28;658928;-72
2022/01/07 12:51:59;;;;;;;17.70;6.67;;;4.40;35.40;;;;;;4382966;28;658691;-73
2022/01/07 12:54:57;;;;;;;22.37;6.70;;;3.80;37.20;;;;;;4390015;28;658665;-73
2022/01/07 12:57:46;;;;;;;17.43;6.13;;;3.50;38.30;;;;;;4385442;28;659814;-75
2022/01/07 13:00:34;;;;;;;16.33;6.07;;;3.40;38.60;;;;;;4389494;28;659821;-73
2022/01/07 13:03:27;;;;;;;16.27;6.57;;;3.30;39.80;;;;;;4389491;28;658815;-74
2022/01/07 13:06:14;;;;;;;21.97;7.57;;;3.20;40.30;;;;;;4385932;28;659348;-73
2022/01/07 13:09:02;;;;;;;19.13;6.60;;;3.00;39.50;;;;;;4384354;28;658335;-73
2022/01/07 13:11:50;;;;;;;24.45;7.90;;;3.00;40.70;;;;;;4407381;28;658833;-73
2022/01/07 13:14:38;;;;;;;19.47;7.47;;;2.90;42.80;;;;;;4389676;28;659096;-74
2022/01/07 13:17:28;;;;;;;17.67;7.13;;;2.90;42.90;;;;;;4386691;28;658517;-74
2022/01/07 13:20:30;;;;;;;21.98;7.50;;;2.90;42.50;;;;;;4389649;28;658796;-73
2022/01/07 13:23:17;;;;;;;19.17;7.70;;;2.80;42.00;;;;;;4360826;28;659575;-73
2022/01/07 13:26:06;;;;;;;24.27;8.03;;;2.90;43.40;;;;;;4404041;28;658923;-73
2022/01/07 13:28:54;;;;;;;23.13;8.00;;;2.90;43.20;;;;;;4407278;28;658996;-73
2022/01/07 13:31:43;;;;;;;22.03;7.37;;;2.90;43.60;;;;;;4388276;28;659067;-72
2022/01/07 13:34:33;;;;;;;19.93;7.57;;;2.90;43.40;;;;;;4389696;28;658922;-73
2022/01/07 13:37:22;;;;;;;24.00;7.70;;;2.80;44.00;;;;;;4395118;28;659360;-73
2022/01/07 13:40:13;;;;;;;21.25;7.40;;;2.80;45.30;;;;;;4398226;28;658983;-73
2022/01/07 13:43:10;;;;;;;20.50;7.30;;;2.80;44.30;;;;;;4367550;28;659435;-74
2022/01/07 13:46:08;;;;;;;21.37;7.47;;;2.90;43.20;;;;;;4359550;28;659296;-72
2022/01/07 13:48:57;;;;;;;21.60;7.57;;;3.00;43.50;;;;;;4361523;28;659637;-73
2022/01/07 13:51:51;;;;;;;27.50;10.35;;;2.90;43.90;;;;;;4405771;28;659516;-72
2022/01/07 13:54:41;;;;;;;26.33;9.87;;;2.80;45.30;;;;;;4375364;28;660192;-73
2022/01/07 13:57:30;;;;;;;25.93;8.00;;;2.50;47.00;;;;;;4384447;28;659634;-72
2022/01/07 14:00:17;;;;;;;23.90;8.10;;;2.30;46.90;;;;;;4389113;28;659097;-72
2022/01/07 14:03:06;;;;;;;20.80;7.27;;;2.20;47.60;;;;;;4412992;28;658600;-73
2022/01/07 14:06:01;;;;;;;16.53;6.33;;;2.00;46.60;;;;;;4414499;28;659244;-73
2022/01/07 14:08:49;;;;;;;18.20;6.43;;;1.90;46.40;;;;;;4392872;28;659042;-75
2022/01/07 14:11:38;;;;;;;17.03;6.23;;;1.80;46.80;;;;;;4392814;28;658445;-75
2022/01/07 14:14:28;;;;;;;19.85;6.93;;;1.70;46.10;;;;;;4392367;28;658649;-75
2022/01/07 14:17:16;;;;;;;17.38;6.18;;;1.50;45.30;;;;;;4390530;28;658542;-74
2022/01/07 14:20:04;;;;;;;17.40;6.07;;;1.50;46.10;;;;;;4408581;28;659154;-73